Archie Wilson — WDD4935 — position and weather

sailwx.info

Track history (hours):
 
Tides and Currents Weather Stations Pressure Air Temp Water Temp Dewpoint Dewpoint Depression Visibility Wind Speed Wind Dir Waves Ship Positions

Archie Wilson

Owner: Kirby Inland Marine LP, Houston, TX. More information available from US FCC via Universal Licensing System and Coast Guard Vessel Documentation Center.

Last reported at 2017-Oct-18 02:24 UTC. Time now 2017-Nov-24 03:21 UTC.
Position N 32°47' W 091°09'.
Warning: this ship's position is 37 days out of date.

Length 207 m; draft 2.8 m.

Type: . MMSI: 367151380.

Date/timePositionNaut miles runAvg speedWind from/ knotsBaromVisibWave heightAir tempDewpointWater temp
2017-Oct-18 02:24N 32°47' W 091°09'2 5.2
2017-Oct-18 02:00N 32°45' W 091°09'7 1.1
2017-Oct-17 19:52N 32°38' W 091°09'2 5.1
2017-Oct-17 19:31N 32°36' W 091°09'2 4.0
2017-Oct-17 19:01N 32°35' W 091°07'2 4.9
2017-Oct-17 18:30N 32°32' W 091°06'3 6.1
2017-Oct-17 18:01N 32°30' W 091°07'3 5.9
2017-Oct-17 17:31N 32°27' W 091°05'3 5.9
2017-Oct-17 17:01N 32°26' W 091°02'3 5.2
2017-Oct-17 16:30N 32°24' W 090°59'3 5.2
2017-Oct-17 16:01N 32°22' W 091°00'3 5.7
2017-Oct-17 15:31N 32°21' W 090°57'3 5.3
2017-Oct-17 15:01N 32°20' W 090°54'3 5.7
2017-Oct-17 14:31N 32°18' W 090°56'3 5.6
2017-Oct-17 14:00N 32°16' W 090°58'3 5.4
2017-Oct-17 13:31N 32°13' W 090°59'3 5.7
2017-Oct-17 13:01N 32°10' W 090°60'3 5.3
2017-Oct-17 12:30N 32°08' W 091°01'2 4.6
2017-Oct-17 12:01N 32°08' W 091°03'3 5.5
2017-Oct-17 11:30N 32°07' W 091°07'5 5.5
2017-Oct-17 10:39N 32°04' W 091°03'1 5.3
2017-Oct-17 10:30N 32°03' W 091°03'3 6.5
2017-Oct-17 10:01N 31°60' W 091°05'  
2017-Oct-09 14:51N 29°50' W 091°60'2 6.8
2017-Oct-09 14:30N 29°49' W 092°02'3 6.5
2017-Oct-09 14:00N 29°48' W 092°06'3 6.4
2017-Oct-09 13:30N 29°47' W 092°09'3 5.4
2017-Oct-09 13:00N 29°47' W 092°12'1 1.2
2017-Oct-09 12:30N 29°47' W 092°13'3 6.5
2017-Oct-09 12:00N 29°49' W 092°16'3 5.5
2017-Oct-09 11:26N 29°50' W 092°20'37 5.9
2017-Oct-09 05:08N 29°56' W 093°02'1 6.2
2017-Oct-09 05:00N 29°56' W 093°03'3 5.7
2017-Oct-09 04:30N 29°56' W 093°06'3 6.1
2017-Oct-09 04:00N 29°56' W 093°09'3 6.0
2017-Oct-09 03:30N 29°58' W 093°12'3 6.0
2017-Oct-09 03:00N 30°01' W 093°14'3 5.7
2017-Oct-09 02:31N 30°03' W 093°16'3 5.6
2017-Oct-09 02:00N 30°05' W 093°18'1 2.5
2017-Oct-09 01:30N 30°06' W 093°19'3 5.4
2017-Oct-09 01:00N 30°04' W 093°21'2 3.4
2017-Oct-09 00:30N 30°04' W 093°22'3 6.1
2017-Oct-09 00:00N 30°04' W 093°26'3 6.4
2017-Oct-08 23:30N 30°04' W 093°30'3 6.4
2017-Oct-08 23:00N 30°04' W 093°33'3 6.3
2017-Oct-08 22:30N 30°04' W 093°37'3 5.9
2017-Oct-08 21:59N 30°04' W 093°41'  
Track history (hours):
 
Tides and Currents Weather Stations Pressure Air Temp Water Temp Dewpoint Dewpoint Depression Visibility Wind Speed Wind Dir Waves Ship Positions

Archie Wilson

Owner: Kirby Inland Marine LP, Houston, TX. More information available from US FCC via Universal Licensing System and Coast Guard Vessel Documentation Center.

Last reported at 2017-Oct-18 02:24 UTC. Time now 2017-Nov-24 03:21 UTC.
Position N 32°47' W 091°09'.
Warning: this ship's position is 37 days out of date.

Length 207 m; draft 2.8 m.

Type: . MMSI: 367151380.

Date/timePositionNaut miles runAvg speedWind from/ knotsBaromVisibWave heightAir tempDewpointWater temp
2017-Oct-18 02:24N 32°47' W 091°09'2 5.2
2017-Oct-18 02:00N 32°45' W 091°09'7 1.1
2017-Oct-17 19:52N 32°38' W 091°09'2 5.1
2017-Oct-17 19:31N 32°36' W 091°09'2 4.0
2017-Oct-17 19:01N 32°35' W 091°07'2 4.9
2017-Oct-17 18:30N 32°32' W 091°06'3 6.1
2017-Oct-17 18:01N 32°30' W 091°07'3 5.9
2017-Oct-17 17:31N 32°27' W 091°05'3 5.9
2017-Oct-17 17:01N 32°26' W 091°02'3 5.2
2017-Oct-17 16:30N 32°24' W 090°59'3 5.2
2017-Oct-17 16:01N 32°22' W 091°00'3 5.7
2017-Oct-17 15:31N 32°21' W 090°57'3 5.3
2017-Oct-17 15:01N 32°20' W 090°54'3 5.7
2017-Oct-17 14:31N 32°18' W 090°56'3 5.6
2017-Oct-17 14:00N 32°16' W 090°58'3 5.4
2017-Oct-17 13:31N 32°13' W 090°59'3 5.7
2017-Oct-17 13:01N 32°10' W 090°60'3 5.3
2017-Oct-17 12:30N 32°08' W 091°01'2 4.6
2017-Oct-17 12:01N 32°08' W 091°03'3 5.5
2017-Oct-17 11:30N 32°07' W 091°07'5 5.5
2017-Oct-17 10:39N 32°04' W 091°03'1 5.3
2017-Oct-17 10:30N 32°03' W 091°03'3 6.5
2017-Oct-17 10:01N 31°60' W 091°05'  
2017-Oct-09 14:51N 29°50' W 091°60'2 6.8
2017-Oct-09 14:30N 29°49' W 092°02'3 6.5
2017-Oct-09 14:00N 29°48' W 092°06'3 6.4
2017-Oct-09 13:30N 29°47' W 092°09'3 5.4
2017-Oct-09 13:00N 29°47' W 092°12'1 1.2
2017-Oct-09 12:30N 29°47' W 092°13'3 6.5
2017-Oct-09 12:00N 29°49' W 092°16'3 5.5
2017-Oct-09 11:26N 29°50' W 092°20'37 5.9
2017-Oct-09 05:08N 29°56' W 093°02'1 6.2
2017-Oct-09 05:00N 29°56' W 093°03'3 5.7
2017-Oct-09 04:30N 29°56' W 093°06'3 6.1
2017-Oct-09 04:00N 29°56' W 093°09'3 6.0
2017-Oct-09 03:30N 29°58' W 093°12'3 6.0
2017-Oct-09 03:00N 30°01' W 093°14'3 5.7
2017-Oct-09 02:31N 30°03' W 093°16'3 5.6
2017-Oct-09 02:00N 30°05' W 093°18'1 2.5
2017-Oct-09 01:30N 30°06' W 093°19'3 5.4
2017-Oct-09 01:00N 30°04' W 093°21'2 3.4
2017-Oct-09 00:30N 30°04' W 093°22'3 6.1
2017-Oct-09 00:00N 30°04' W 093°26'3 6.4
2017-Oct-08 23:30N 30°04' W 093°30'3 6.4
2017-Oct-08 23:00N 30°04' W 093°33'3 6.3
2017-Oct-08 22:30N 30°04' W 093°37'3 5.9
2017-Oct-08 21:59N 30°04' W 093°41'  

Dump ship's entire track history